Laredo International Airport Laredo US
ICAO: KLRD
IATA: LRD
Category: Medium
Scheduled Services: Yes

Elevation: 508 ft
TransAlt. 18000 ft.

Airport Communications:
ATIS:125.775
HOUSTON CNTR:127.8
CTAF:120.1
GND:121.8
SAN ANGELO RDO:122.3
TWR:120.1
UNICOM:122.95

KLRD Zoom In..

Runways:

(A) RW 14 length 5927 ft width 150 ft
---- / hdg 139

(B) RW 17L length 8236 ft width 150 ft
---- / hdg 175

(C) RW 17R length 8743 ft width 150 ft
ILS 111.90 / hdg 175

(D) RW 32 length 5927 ft width 150 ft
---- / hdg 319

(E) RW 35L length 8743 ft width 150 ft
---- / hdg 355

(F) RW 35R length 8236 ft width 150 ft
---- / hdg 355

Location; KLRD
Day. 22 / Time. 01.56 Zulu
* Altimeter: 29.87
* Temperature: 30° c. 86°f.
* Wind from: 100° Speed 13 kn.
Dewpoint: 19° c.
Visibility: 10 Statute Miles.
Clouds: Clear (automated report).

KLRD 220156Z 10013KT 10SM CLR 30/19 A2987 RMK AO2 SLP115 T03000194


Wind From 100°
Speed 13 kn.

 
 
jpsmedia.com for Web Design SOUNDCLOUD worldairports.se 2018   terms of use